Search for airport 
image banner adimage banner adimage banner ad
image banner ad

3PS7 - Coxton Lake

Located in Lakewood, United States

ICAO - 3PS7, IATA -

Data provided by Airmate  

General information

Coordinates: N41°51'29" W75°26'56"
Elevation is 2110 feet MSL.
 
View others Airports in Pennsylvania

Operational data

Special qualification required
Current time UTC:
Current local time:
Weather at : KMSV - Sullivan County Intl ( 57 km )
METAR: KMSV 182356Z AUTO 31005KT 10SM CLR 22/06 A3026 RMK AO2 SLP243 T02170056 10256 20217 53000
View NOTAMs / SUP AIP / TFR affecting this airport [VIEW]
Communications frequencies: [VIEW]

Runways:

Airport contact information

Address: Lakewood United States

Satellite view of 3PS7